Mustafa Dayi — TCZF2 — position and weather

sailwx.info

Track history (hours):
 
Tides and Currents Weather Stations Pressure Air Temp Water Temp Dewpoint Dewpoint Depression Visibility Wind Speed Wind Dir Waves Ship Positions

Mustafa Dayi

Last reported at 2015-Jul-04 21:33 UTC. Time now 2015-Jul-05 13:16 UTC.
Position N 40°45' E 029°32'.

Length 183 m; draft 8.3 m.

Type: Ship. MMSI: 271042433.

Date/timePositionNaut miles runAvg speedWind from/ knotsBaromVisibWave heightAir tempDewpointWater temp
2015-Jul-04 21:33N 40°45' E 029°32'1110.6
2015-Jul-04 20:33N 40°43' E 029°18'1413.7
2015-Jul-04 19:33N 40°40' E 029°01'22 0.6
2015-Jul-03 05:20N 40°56' E 028°40'6 6.8
2015-Jul-03 04:26N 40°55' E 028°32'23511.8
2015-Jul-02 08:33N 37°34' E 025°54'2713.2
2015-Jul-02 06:29N 37°14' E 026°17'1313.7
2015-Jul-02 05:33N 37°05' E 026°29'1413.5
2015-Jul-02 04:32N 36°55' E 026°41'1313.7
2015-Jul-02 03:33N 36°44' E 026°50'1413.5
2015-Jul-02 02:33N 36°33' E 026°60'1413.8
2015-Jul-02 01:33N 36°32' E 027°17'  
2015-Jun-28 16:23N 33°55' E 035°32'2210.0
2015-Jun-28 14:11N 33°50' E 035°06'204 6.4
2015-Jun-27 06:33N 31°22' E 032°20'16 3.9
2015-Jun-27 02:28N 31°34' E 032°09'1613.8
2015-Jun-27 01:19N 31°46' E 031°56'1414.2
2015-Jun-27 00:20N 31°48' E 031°40'1414.2
2015-Jun-26 23:21N 31°50' E 031°24'1214.0
2015-Jun-26 22:31N 31°52' E 031°10'2914.0
2015-Jun-26 20:26N 31°54' E 030°36'1213.5
2015-Jun-26 19:33N 31°50' E 030°23'1514.2
2015-Jun-26 18:32N 31°41' E 030°10'1414.2
2015-Jun-26 17:32N 31°31' E 029°58'1413.9
2015-Jun-26 16:33N 31°20' E 029°49'1010.1
2015-Jun-26 15:33N 31°10' E 029°50'3 2.0
2015-Jun-26 14:16N 31°11' E 029°52'0 0.0
2015-Jun-26 13:31N 31°11' E 029°52'  
Track history (hours):
 
Tides and Currents Weather Stations Pressure Air Temp Water Temp Dewpoint Dewpoint Depression Visibility Wind Speed Wind Dir Waves Ship Positions

Mustafa Dayi

Last reported at 2015-Jul-04 21:33 UTC. Time now 2015-Jul-05 13:16 UTC.
Position N 40°45' E 029°32'.

Length 183 m; draft 8.3 m.

Type: Ship. MMSI: 271042433.

Date/timePositionNaut miles runAvg speedWind from/ knotsBaromVisibWave heightAir tempDewpointWater temp
2015-Jul-04 21:33N 40°45' E 029°32'1110.6
2015-Jul-04 20:33N 40°43' E 029°18'1413.7
2015-Jul-04 19:33N 40°40' E 029°01'22 0.6
2015-Jul-03 05:20N 40°56' E 028°40'6 6.8
2015-Jul-03 04:26N 40°55' E 028°32'23511.8
2015-Jul-02 08:33N 37°34' E 025°54'2713.2
2015-Jul-02 06:29N 37°14' E 026°17'1313.7
2015-Jul-02 05:33N 37°05' E 026°29'1413.5
2015-Jul-02 04:32N 36°55' E 026°41'1313.7
2015-Jul-02 03:33N 36°44' E 026°50'1413.5
2015-Jul-02 02:33N 36°33' E 026°60'1413.8
2015-Jul-02 01:33N 36°32' E 027°17'  
2015-Jun-28 16:23N 33°55' E 035°32'2210.0
2015-Jun-28 14:11N 33°50' E 035°06'204 6.4
2015-Jun-27 06:33N 31°22' E 032°20'16 3.9
2015-Jun-27 02:28N 31°34' E 032°09'1613.8
2015-Jun-27 01:19N 31°46' E 031°56'1414.2
2015-Jun-27 00:20N 31°48' E 031°40'1414.2
2015-Jun-26 23:21N 31°50' E 031°24'1214.0
2015-Jun-26 22:31N 31°52' E 031°10'2914.0
2015-Jun-26 20:26N 31°54' E 030°36'1213.5
2015-Jun-26 19:33N 31°50' E 030°23'1514.2
2015-Jun-26 18:32N 31°41' E 030°10'1414.2
2015-Jun-26 17:32N 31°31' E 029°58'1413.9
2015-Jun-26 16:33N 31°20' E 029°49'1010.1
2015-Jun-26 15:33N 31°10' E 029°50'3 2.0
2015-Jun-26 14:16N 31°11' E 029°52'0 0.0
2015-Jun-26 13:31N 31°11' E 029°52'  

Dump ship's entire track history